Time;durP1;ratioP1;P1;durP2;ratioP2;P2;SDS_P1;SDS_P2;PMS_P1;PMS_P2;Temp;Humidity;BMP_temperature;BMP_pressure;BME280_temperature;BME280_humidity;BME280_pressure;Samples;Min_cycle;Max_cycle;Signal;HPM_P1;HPM_P2
2023/04/10 00:02:19;;;;;;;1.67;1.20;;;;;;;14.57;35.07;96795.50;5036717;28;20033;-31
2023/04/10 00:04:45;;;;;;;2.97;1.60;;;;;;;14.67;34.56;96792.38;5048163;28;20528;-30
2023/04/10 00:07:13;;;;;;;2.22;1.13;;;;;;;14.54;35.33;96785.47;5034786;28;20049;-30
2023/04/10 00:09:38;;;;;;;2.58;1.23;;;;;;;14.72;34.83;96785.59;5034774;28;20136;-32
2023/04/10 00:12:04;;;;;;;2.55;1.13;;;;;;;14.50;35.04;96788.31;5034452;28;20013;-30
2023/04/10 00:14:30;;;;;;;1.20;0.90;;;;;;;14.58;34.76;96786.88;5034587;28;20032;-31
2023/04/10 00:16:55;;;;;;;3.03;1.05;;;;;;;14.63;34.47;96794.47;5041780;28;20021;-30
2023/04/10 00:19:21;;;;;;;1.10;0.93;;;;;;;14.38;34.53;96794.53;5039982;28;20021;-30
2023/04/10 00:21:46;;;;;;;1.85;1.10;;;;;;;14.48;34.94;96798.91;5037233;28;20029;-30
2023/04/10 00:24:12;;;;;;;2.15;1.10;;;;;;;14.46;34.84;96801.34;5039949;28;20025;-30
2023/04/10 00:26:37;;;;;;;1.40;1.10;;;;;;;14.24;35.05;96795.78;5034324;28;20044;-30
2023/04/10 00:29:03;;;;;;;1.20;0.93;;;;;;;14.47;34.61;96802.84;5037247;28;20449;-30
2023/04/10 00:31:29;;;;;;;1.70;1.17;;;;;;;14.39;34.78;96801.53;5034641;28;20492;-30
2023/04/10 00:33:55;;;;;;;1.15;0.95;;;;;;;14.49;34.80;96796.94;5040172;28;20071;-30
2023/04/10 00:36:20;;;;;;;2.03;1.25;;;;;;;14.29;35.00;96806.16;5033973;28;20021;-30
2023/04/10 00:38:46;;;;;;;1.77;1.30;;;;;;;14.35;34.98;96801.66;5034034;28;20103;-30
2023/04/10 00:41:12;;;;;;;1.67;1.17;;;;;;;14.58;34.34;96799.75;5041784;28;20021;-30
2023/04/10 00:43:37;;;;;;;1.40;1.10;;;;;;;14.47;35.03;96797.38;5033995;28;20030;-30
2023/04/10 00:46:04;;;;;;;4.85;1.98;;;;;;;14.30;34.68;96793.28;5034112;28;20029;-30
2023/04/10 00:48:30;;;;;;;1.75;1.17;;;;;;;14.33;34.65;96793.16;5037950;28;20087;-30
2023/04/10 00:50:56;;;;;;;2.58;1.00;;;;;;;14.42;34.61;96789.00;5037282;28;20461;-31
2023/04/10 00:53:22;;;;;;;1.30;1.10;;;;;;;14.32;34.40;96783.44;5034223;28;20051;-30
2023/04/10 00:55:49;;;;;;;1.70;1.17;;;;;;;14.46;34.33;96784.97;5033730;28;20017;-31
2023/04/10 00:58:14;;;;;;;1.30;1.00;;;;;;;14.30;34.81;96783.13;5033963;28;20056;-31
2023/04/10 01:00:40;;;;;;;1.58;0.93;;;;;;;14.40;34.24;96785.94;5033991;28;20056;-30
2023/04/10 01:03:07;;;;;;;2.75;1.10;;;;;;;14.43;34.05;96780.38;5040469;28;20104;-30
2023/04/10 01:06:02;;;;;;;1.38;0.90;;;;;;;14.39;34.72;96774.25;5047578;28;20061;-30
2023/04/10 01:09:01;;;;;;;1.50;1.13;;;;;;;14.33;34.28;96771.34;5033088;28;20416;-30
2023/04/10 01:11:51;;;;;;;1.63;1.02;;;;;;;13.93;35.11;96771.13;5039594;28;20437;-31
2023/04/10 01:14:37;;;;;;;1.67;1.10;;;;;;;14.33;34.61;96771.34;5033678;28;20032;-30
2023/04/10 01:17:27;;;;;;;1.40;1.00;;;;;;;13.97;34.96;96763.56;5027396;28;20041;-30
2023/04/10 01:20:21;;;;;;;1.02;0.93;;;;;;;14.26;34.79;96765.34;5040803;28;20022;-30
2023/04/10 01:22:58;;;;;;;0.98;0.88;;;;;;;14.15;34.86;96760.25;5048205;28;20021;-31
2023/04/10 01:25:26;;;;;;;2.28;1.13;;;;;;;14.13;34.86;96756.44;5033536;28;20032;-30
2023/04/10 01:28:20;;;;;;;1.25;1.00;;;;;;;14.04;35.36;96759.84;5033858;28;20048;-30
2023/04/10 01:30:58;;;;;;;1.85;1.23;;;;;;;14.17;34.97;96759.81;5033765;28;20096;-30
2023/04/10 01:33:31;;;;;;;1.52;1.00;;;;;;;14.30;34.75;96764.03;5033528;28;20445;-30
2023/04/10 01:35:59;;;;;;;2.28;1.10;;;;;;;14.31;34.74;96762.06;5040993;28;20018;-30
2023/04/10 01:38:28;;;;;;;2.28;0.90;;;;;;;14.14;35.13;96753.28;5040507;28;20022;-30
2023/04/10 01:40:54;;;;;;;2.55;1.27;;;;;;;14.13;35.21;96740.06;5040833;28;20043;-33
2023/04/10 01:43:21;;;;;;;2.80;1.10;;;;;;;13.89;35.35;96740.47;5026123;28;20029;-31
2023/04/10 01:45:50;;;;;;;1.65;1.10;;;;;;;14.14;34.49;96742.38;5039628;28;20028;-29
2023/04/10 01:48:17;;;;;;;1.42;1.10;;;;;;;14.14;35.42;96733.41;5033736;28;20025;-30
2023/04/10 01:50:45;;;;;;;1.20;1.00;;;;;;;14.05;35.31;96736.84;5037282;28;20614;-31
2023/04/10 01:53:12;;;;;;;1.23;1.08;;;;;;;14.14;35.21;96736.16;5035220;28;20029;-30
2023/04/10 01:55:38;;;;;;;1.75;1.25;;;;;;;14.09;35.11;96725.81;5039712;28;20024;-31
2023/04/10 01:58:05;;;;;;;2.80;1.15;;;;;;;13.97;35.60;96711.75;5033225;28;20052;-30
2023/04/10 02:00:40;;;;;;;1.40;1.00;;;;;;;14.06;35.29;96718.50;5033670;28;20486;-30
2023/04/10 02:03:06;;;;;;;1.65;1.02;;;;;;;14.29;34.71;96712.63;5033227;28;20048;-30
2023/04/10 02:05:44;;;;;;;2.13;0.93;;;;;;;14.05;35.05;96714.25;5033624;28;20029;-30
2023/04/10 02:08:27;;;;;;;1.60;1.00;;;;;;;14.05;35.03;96704.13;5040567;28;20021;-30
2023/04/10 02:11:15;;;;;;;1.17;0.98;;;;;;;14.11;35.08;96704.28;5026894;28;20100;-30
2023/04/10 02:13:41;;;;;;;1.25;0.93;;;;;;;14.27;35.21;96712.31;5024846;28;20107;-30
2023/04/10 02:16:08;;;;;;;1.55;0.93;;;;;;;14.11;35.21;96709.75;5033196;28;20083;-29
2023/04/10 02:18:35;;;;;;;2.17;1.15;;;;;;;14.09;35.38;96704.75;5033349;28;20029;-29
2023/04/10 02:21:02;;;;;;;1.40;0.98;;;;;;;14.16;35.55;96709.19;5040107;28;20049;-30
2023/04/10 02:23:28;;;;;;;1.48;0.75;;;;;;;14.25;35.45;96710.03;5047125;28;20021;-30
2023/04/10 02:25:55;;;;;;;1.92;1.00;;;;;;;14.03;35.50;96715.47;5033539;28;20017;-30
2023/04/10 02:28:21;;;;;;;1.67;1.05;;;;;;;14.32;35.52;96711.75;5038163;28;20013;-30
2023/04/10 02:30:47;;;;;;;1.27;1.00;;;;;;;14.35;35.38;96716.31;5035773;28;20381;-32
2023/04/10 02:33:12;;;;;;;1.45;1.35;;;;;;;14.12;35.81;96706.59;5036612;28;20023;-30
2023/04/10 02:35:38;;;;;;;1.50;0.90;;;;;;;14.02;35.84;96713.16;5036323;28;20033;-30
2023/04/10 02:38:03;;;;;;;1.48;1.00;;;;;;;14.21;35.71;96714.09;5043947;28;20132;-30
2023/04/10 02:40:28;;;;;;;2.88;0.90;;;;;;;14.11;36.20;96715.97;5047997;28;20040;-29
2023/04/10 02:42:54;;;;;;;1.05;0.80;;;;;;;14.07;36.00;96709.13;5039035;28;20033;-30
2023/04/10 02:45:20;;;;;;;2.13;1.00;;;;;;;14.15;36.06;96715.84;5038584;28;20021;-30
2023/04/10 02:47:45;;;;;;;1.52;1.00;;;;;;;14.24;36.38;96713.94;5040613;28;20075;-31
2023/04/10 02:50:10;;;;;;;1.27;1.00;;;;;;;14.48;36.10;96711.56;5036420;28;20034;-30
2023/04/10 02:52:36;;;;;;;1.08;0.82;;;;;;;14.42;36.11;96709.88;5039063;28;20472;-30
2023/04/10 02:55:01;;;;;;;2.38;1.02;;;;;;;14.27;36.66;96706.84;5038958;28;20029;-30
2023/04/10 02:57:27;;;;;;;1.42;1.10;;;;;;;14.31;36.74;96718.41;5043728;28;20045;-31
2023/04/10 02:59:53;;;;;;;2.10;1.05;;;;;;;14.27;36.89;96706.84;5035939;28;20021;-30
2023/04/10 03:02:19;;;;;;;2.30;1.30;;;;;;;14.20;36.80;96704.38;5035905;28;20049;-30
2023/04/10 03:04:44;;;;;;;2.80;1.20;;;;;;;14.24;37.11;96708.50;5043425;28;20036;-30
2023/04/10 03:07:10;;;;;;;2.33;1.20;;;;;;;14.22;37.32;96700.00;5035743;28;20448;-30
2023/04/10 03:09:35;;;;;;;1.77;1.27;;;;;;;14.16;37.77;96701.00;5043185;28;20366;-30
2023/04/10 03:12:01;;;;;;;1.17;0.90;;;;;;;14.16;37.77;96709.97;5040651;28;20021;-29
2023/04/10 03:14:27;;;;;;;1.90;1.15;;;;;;;14.11;38.13;96707.78;5038456;28;20065;-30
2023/04/10 03:16:52;;;;;;;1.17;1.00;;;;;;;14.07;38.42;96698.22;5035669;28;20380;-30
2023/04/10 03:19:18;;;;;;;2.70;1.13;;;;;;;14.22;38.44;96704.69;5035651;28;20025;-30
2023/04/10 03:21:45;;;;;;;1.92;1.30;;;;;;;14.14;38.65;96698.72;5035613;28;20036;-30
2023/04/10 03:24:11;;;;;;;1.70;1.33;;;;;;;14.21;38.99;96709.41;5035805;28;20440;-31
2023/04/10 03:26:36;;;;;;;2.00;1.60;;;;;;;14.18;39.00;96699.38;5042459;28;20048;-31
2023/04/10 03:29:02;;;;;;;1.58;1.23;;;;;;;14.23;38.71;96706.22;5043143;28;20044;-30
2023/04/10 03:31:28;;;;;;;1.77;1.35;;;;;;;14.14;39.24;96714.31;5035555;28;20021;-30
2023/04/10 03:33:54;;;;;;;3.88;1.40;;;;;;;14.42;39.36;96705.19;5035240;28;20025;-30
2023/04/10 03:36:19;;;;;;;2.10;1.35;;;;;;;14.20;39.26;96707.13;5035386;28;20431;-30
2023/04/10 03:38:45;;;;;;;2.15;1.55;;;;;;;14.23;39.18;96706.97;5042176;28;20024;-30
2023/04/10 03:41:10;;;;;;;1.55;0.98;;;;;;;14.26;39.10;96711.53;5050685;28;20036;-30
2023/04/10 03:43:36;;;;;;;1.80;1.30;;;;;;;14.34;38.96;96712.81;5040266;28;20029;-31
2023/04/10 03:46:01;;;;;;;2.47;1.30;;;;;;;14.28;39.11;96706.41;5042288;28;20025;-30
2023/04/10 03:48:29;;;;;;;2.55;1.73;;;;;;;14.25;39.14;96718.19;5035199;28;20029;-30
2023/04/10 03:50:54;;;;;;;1.88;1.27;;;;;;;14.36;39.22;96715.09;5033778;28;20028;-30
2023/04/10 03:53:20;;;;;;;5.88;1.55;;;;;;;14.25;39.31;96715.47;5035350;28;20022;-30
2023/04/10 03:55:45;;;;;;;4.28;1.52;;;;;;;14.24;39.62;96713.19;5042273;28;20376;-29
2023/04/10 03:58:12;;;;;;;4.65;1.25;;;;;;;14.20;39.60;96715.31;5042118;28;20012;-29
2023/04/10 04:00:37;;;;;;;3.00;1.35;;;;;;;14.15;39.24;96708.44;5027940;28;20044;-30
2023/04/10 04:03:03;;;;;;;2.33;1.42;;;;;;;14.03;39.84;96718.19;5034385;28;20473;-30
2023/04/10 04:05:30;;;;;;;1.60;1.30;;;;;;;14.30;39.25;96716.88;5042174;28;20021;-30
2023/04/10 04:07:55;;;;;;;3.10;1.27;;;;;;;14.16;39.73;96703.75;5033595;28;20075;-30
2023/04/10 04:10:21;;;;;;;2.83;1.65;;;;;;;14.12;39.62;96709.31;5034619;28;20052;-30
2023/04/10 04:12:46;;;;;;;2.75;1.40;;;;;;;13.90;40.03;96703.84;5041876;28;20068;-31
2023/04/10 04:15:12;;;;;;;2.00;1.23;;;;;;;14.20;39.65;96702.44;5041768;28;20021;-30
2023/04/10 04:17:37;;;;;;;1.98;1.50;;;;;;;13.98;40.18;96710.56;5035246;28;20029;-30
2023/04/10 04:20:05;;;;;;;1.58;1.00;;;;;;;14.06;39.88;96718.50;5034289;28;20029;-30
2023/04/10 04:22:30;;;;;;;2.58;1.65;;;;;;;14.20;39.89;96718.03;5040371;28;20029;-30
2023/04/10 04:24:56;;;;;;;3.88;2.50;;;;;;;14.03;40.06;96715.47;5034764;28;20423;-30
2023/04/10 04:27:22;;;;;;;7.20;2.13;;;;;;;14.07;40.29;96720.03;5034656;28;20056;-30
2023/04/10 04:29:47;;;;;;;2.67;2.05;;;;;;;14.11;40.14;96715.19;5033862;28;20032;-31
2023/04/10 04:32:13;;;;;;;3.33;2.17;;;;;;;14.06;40.07;96726.69;5040885;28;20010;-30
2023/04/10 04:34:39;;;;;;;3.30;1.65;;;;;;;14.13;39.91;96721.75;5034516;28;20418;-29
2023/04/10 04:37:04;;;;;;;2.95;1.83;;;;;;;13.96;40.24;96737.53;5032791;28;20056;-30
2023/04/10 04:39:33;;;;;;;3.00;1.80;;;;;;;13.87;40.35;96739.38;5034335;28;20381;-29
2023/04/10 04:41:58;;;;;;;3.20;2.00;;;;;;;14.03;40.39;96731.81;5034251;28;20479;-30
2023/04/10 04:44:24;;;;;;;1.90;1.33;;;;;;;14.07;40.25;96744.59;5041068;28;20030;-30
2023/04/10 04:46:49;;;;;;;3.63;1.60;;;;;;;14.10;40.51;96743.69;5047619;28;20069;-30
2023/04/10 04:49:15;;;;;;;2.20;1.27;;;;;;;13.90;40.29;96755.63;5034664;28;20032;-30
2023/04/10 04:51:40;;;;;;;2.50;1.30;;;;;;;14.03;40.11;96759.09;5033389;28;20479;-30
2023/04/10 04:54:05;;;;;;;2.10;1.50;;;;;;;14.06;40.07;96752.00;5033842;28;20350;-30
2023/04/10 04:56:31;;;;;;;2.03;1.15;;;;;;;13.88;40.39;96763.50;5034658;28;20024;-29
2023/04/10 04:58:56;;;;;;;3.72;1.50;;;;;;;13.99;39.97;96757.69;5033988;28;20389;-30
2023/04/10 05:01:22;;;;;;;2.30;1.20;;;;;;;13.92;40.36;96752.47;5040864;28;20029;-31
2023/04/10 05:03:48;;;;;;;3.38;1.77;;;;;;;14.06;40.22;96745.78;5045029;28;20020;-31
2023/04/10 05:06:13;;;;;;;3.22;1.10;;;;;;;14.02;39.97;96749.38;5036540;28;20028;-30
2023/04/10 05:08:39;;;;;;;1.88;1.33;;;;;;;13.88;40.40;96747.13;5033718;28;20362;-30
2023/04/10 05:11:05;;;;;;;2.78;1.35;;;;;;;13.90;40.34;96749.41;5032849;28;20017;-30
2023/04/10 05:13:30;;;;;;;2.97;1.58;;;;;;;13.90;40.28;96750.19;5034332;28;20017;-30
2023/04/10 05:15:55;;;;;;;1.80;1.40;;;;;;;14.13;39.94;96750.97;5037376;28;20025;-30
2023/04/10 05:18:22;;;;;;;3.20;1.45;;;;;;;13.96;40.15;96753.13;5037237;28;20026;-30
2023/04/10 05:20:48;;;;;;;3.40;1.80;;;;;;;14.04;40.36;96765.31;5040914;28;20025;-30
2023/04/10 05:23:14;;;;;;;3.10;1.85;;;;;;;14.09;40.04;96766.72;5033542;28;20029;-31
2023/04/10 05:25:40;;;;;;;4.22;2.35;;;;;;;14.07;40.27;96769.88;5034161;28;20028;-30
2023/04/10 05:28:06;;;;;;;4.30;2.10;;;;;;;13.98;40.74;96777.97;5033670;28;20022;-30
2023/04/10 05:30:31;;;;;;;4.15;2.20;;;;;;;13.92;40.90;96777.78;5033637;28;20029;-30
2023/04/10 05:32:56;;;;;;;4.85;2.60;;;;;;;14.12;40.52;96777.50;5040984;28;20013;-29
2023/04/10 05:35:22;;;;;;;4.45;2.20;;;;;;;14.28;40.14;96791.00;5037965;28;20025;-31
2023/04/10 05:37:47;;;;;;;2.88;1.67;;;;;;;14.13;40.56;96783.72;5035956;28;20119;-29
2023/04/10 05:40:13;;;;;;;2.95;1.60;;;;;;;14.09;40.58;96786.59;5033977;28;20124;-30
2023/04/10 05:42:38;;;;;;;2.10;1.33;;;;;;;14.32;40.35;96796.31;5033449;28;20052;-30
2023/04/10 05:45:04;;;;;;;4.95;2.25;;;;;;;14.11;40.63;96786.88;5033805;28;20032;-30
2023/04/10 05:47:29;;;;;;;2.97;1.60;;;;;;;14.26;40.75;96798.06;5033533;28;20051;-29
2023/04/10 05:49:55;;;;;;;1.95;1.58;;;;;;;14.09;41.21;96802.19;5039131;28;20029;-29
2023/04/10 05:52:20;;;;;;;1.80;1.30;;;;;;;14.21;40.51;96798.66;5033551;28;20056;-31
2023/04/10 05:54:46;;;;;;;3.25;1.75;;;;;;;14.02;40.91;96801.19;5033571;28;20110;-30
2023/04/10 05:57:11;;;;;;;2.65;1.80;;;;;;;14.05;41.24;96812.44;5033327;28;20021;-30
2023/04/10 05:59:36;;;;;;;2.90;1.73;;;;;;;14.18;41.22;96807.72;5032083;28;20043;-31
2023/04/10 06:02:02;;;;;;;2.05;1.35;;;;;;;14.29;40.93;96811.59;5039326;28;20052;-29
2023/04/10 06:04:28;;;;;;;5.32;1.60;;;;;;;14.22;41.27;96809.09;5044925;28;20032;-30
2023/04/10 06:06:54;;;;;;;5.60;1.45;;;;;;;14.25;40.78;96810.19;5042809;28;20053;-30
2023/04/10 06:09:19;;;;;;;5.35;1.77;;;;;;;14.16;41.21;96827.25;5037048;28;20020;-31
2023/04/10 06:11:45;;;;;;;3.55;1.65;;;;;;;14.21;40.90;96818.50;5037265;28;20029;-30
2023/04/10 06:14:10;;;;;;;2.92;1.63;;;;;;;14.21;40.73;96826.69;5036960;28;20102;-30
2023/04/10 06:16:36;;;;;;;3.58;1.63;;;;;;;14.14;41.23;96826.16;5043994;28;20048;-30
2023/04/10 06:19:01;;;;;;;2.15;1.45;;;;;;;14.19;41.25;96829.09;5043966;28;20012;-29
2023/04/10 06:21:27;;;;;;;3.28;1.48;;;;;;;14.07;41.46;96834.59;5043528;28;20031;-29
2023/04/10 06:23:52;;;;;;;1.70;1.52;;;;;;;14.40;40.97;96824.91;5044324;28;20403;-32
2023/04/10 06:26:18;;;;;;;3.50;1.50;;;;;;;14.48;40.55;96837.09;5036784;28;20112;-30
2023/04/10 06:28:43;;;;;;;4.45;1.55;;;;;;;14.30;40.83;96837.69;5043666;28;20021;-30
2023/04/10 06:31:09;;;;;;;2.05;1.40;;;;;;;14.35;40.85;96839.06;5035175;28;20377;-30
2023/04/10 06:33:35;;;;;;;3.20;1.60;;;;;;;14.41;40.79;96839.31;5036537;28;20023;-33
2023/04/10 06:36:01;;;;;;;1.63;1.40;;;;;;;14.33;41.04;96841.50;5044097;28;20017;-30
2023/04/10 06:38:26;;;;;;;2.33;1.52;;;;;;;14.31;40.96;96852.09;5043578;28;20108;-30
2023/04/10 06:40:52;;;;;;;2.22;1.50;;;;;;;14.34;40.58;96849.22;5031734;28;20024;-31
2023/04/10 06:43:17;;;;;;;2.53;1.70;;;;;;;14.30;41.16;96840.41;5036324;28;20100;-30
2023/04/10 06:45:44;;;;;;;2.63;1.70;;;;;;;14.28;41.02;96845.53;5039806;28;20395;-30
2023/04/10 06:48:09;;;;;;;2.80;1.70;;;;;;;14.49;41.11;96840.59;5042630;28;20388;-30
2023/04/10 06:50:36;;;;;;;3.42;1.52;;;;;;;14.44;40.72;96849.38;5040213;28;20021;-30
2023/04/10 06:53:01;;;;;;;2.58;1.63;;;;;;;14.18;41.14;96852.13;5038509;28;20021;-31
2023/04/10 06:55:26;;;;;;;1.83;1.40;;;;;;;14.53;40.72;96847.47;5043366;28;20023;-30
2023/04/10 06:57:52;;;;;;;4.43;1.60;;;;;;;14.39;41.18;96850.66;5036031;28;20028;-30
2023/04/10 07:00:18;;;;;;;4.72;1.70;;;;;;;14.52;40.88;96850.63;5036177;28;20106;-30
2023/04/10 07:02:44;;;;;;;2.47;1.33;;;;;;;14.44;40.82;96852.09;5035634;28;20112;-30
2023/04/10 07:05:10;;;;;;;3.30;1.80;;;;;;;14.58;40.32;96843.44;5035385;28;20018;-31
2023/04/10 07:07:36;;;;;;;2.20;1.65;;;;;;;14.54;40.63;96840.81;5043110;28;20032;-30
2023/04/10 07:10:01;;;;;;;1.70;1.30;;;;;;;14.57;40.75;96837.22;5035752;28;20025;-30
2023/04/10 07:12:27;;;;;;;7.95;2.28;;;;;;;14.53;40.75;96833.06;5035672;28;20013;-29
2023/04/10 07:14:52;;;;;;;2.83;1.60;;;;;;;14.48;40.58;96830.88;5035057;28;20018;-30
2023/04/10 07:17:17;;;;;;;3.95;1.70;;;;;;;14.36;40.82;96835.16;5034067;28;20021;-30
2023/04/10 07:19:43;;;;;;;4.55;1.80;;;;;;;14.35;40.82;96828.94;5037280;28;20040;-30
2023/04/10 07:22:08;;;;;;;4.10;1.77;;;;;;;14.58;40.30;96832.50;5045872;28;20021;-30
2023/04/10 07:24:34;;;;;;;3.20;1.60;;;;;;;14.41;40.25;96826.44;5045316;28;20028;-31
2023/04/10 07:27:00;;;;;;;3.42;1.67;;;;;;;14.56;40.50;96824.75;5037970;28;20461;-30
2023/04/10 07:29:26;;;;;;;7.80;1.85;;;;;;;14.38;40.42;96821.84;5039801;28;20393;-30
2023/04/10 07:31:51;;;;;;;6.80;2.10;;;;;;;14.54;40.31;96821.72;5035324;28;20027;-31
2023/04/10 07:34:17;;;;;;;2.13;1.60;;;;;;;14.26;40.84;96817.19;5035643;28;20017;-30
2023/04/10 07:36:43;;;;;;;5.72;1.70;;;;;;;14.27;40.97;96822.19;5042117;28;20027;-30
2023/04/10 07:39:08;;;;;;;2.08;1.50;;;;;;;14.67;40.34;96824.38;5037766;28;20017;-31
2023/04/10 07:41:34;;;;;;;4.07;2.22;;;;;;;14.51;40.68;96824.56;5039889;28;20100;-30
2023/04/10 07:44:00;;;;;;;3.20;1.50;;;;;;;14.49;40.76;96814.06;5035147;28;20017;-30
2023/04/10 07:46:26;;;;;;;4.30;1.50;;;;;;;14.38;41.19;96821.84;5042742;28;20075;-30
2023/04/10 07:48:52;;;;;;;4.32;1.45;;;;;;;14.68;40.16;96818.50;5034875;28;20083;-31
2023/04/10 07:51:17;;;;;;;2.17;1.60;;;;;;;14.62;40.56;96822.22;5035231;28;20061;-30
2023/04/10 07:53:43;;;;;;;4.95;1.50;;;;;;;14.64;40.59;96811.63;5041939;28;20009;-30
2023/04/10 07:56:17;;;;;;;3.67;1.48;;;;;;;14.62;40.33;96820.25;5042103;28;20043;-30
2023/04/10 07:58:43;;;;;;;3.42;1.70;;;;;;;14.50;40.51;96814.84;5029203;28;20092;-32
2023/04/10 08:01:08;;;;;;;3.33;1.40;;;;;;;14.67;40.24;96814.22;5034613;28;20051;-30
2023/04/10 08:03:42;;;;;;;3.05;1.67;;;;;;;14.75;39.89;96809.28;5037545;28;20056;-31
2023/04/10 08:06:09;;;;;;;2.30;1.60;;;;;;;14.73;39.89;96826.09;5038453;28;20025;-30
2023/04/10 08:08:39;;;;;;;3.83;1.60;;;;;;;14.73;39.95;96809.72;5036623;28;20104;-30
2023/04/10 08:11:27;;;;;;;2.17;1.30;;;;;;;14.69;39.67;96806.38;5039483;28;20029;-30
2023/04/10 08:13:54;;;;;;;3.13;1.67;;;;;;;14.86;39.85;96803.41;5027678;28;20461;-30
2023/04/10 08:16:31;;;;;;;2.97;1.63;;;;;;;14.94;39.88;96810.16;5034655;28;20103;-30
2023/04/10 08:18:57;;;;;;;2.25;1.60;;;;;;;14.91;39.62;96813.78;5027510;28;20465;-31
2023/04/10 08:21:25;;;;;;;2.22;1.48;;;;;;;14.94;39.96;96813.66;5034484;28;20108;-32
2023/04/10 08:23:54;;;;;;;2.17;1.45;;;;;;;15.00;39.62;96822.03;5041872;28;20046;-30
2023/04/10 08:26:20;;;;;;;2.80;1.70;;;;;;;15.01;39.12;96827.06;5041610;28;20021;-31
2023/04/10 08:28:49;;;;;;;2.42;1.70;;;;;;;15.14;39.37;96821.50;5048676;28;20419;-32
2023/04/10 08:31:16;;;;;;;3.47;1.40;;;;;;;14.94;39.42;96818.38;5034271;28;20028;-30
2023/04/10 08:33:41;;;;;;;2.38;1.48;;;;;;;15.14;39.28;96823.47;5033920;28;20030;-29
2023/04/10 08:36:11;;;;;;;4.60;1.70;;;;;;;15.25;39.07;96826.56;5034826;28;20062;-31
2023/04/10 08:38:40;;;;;;;3.25;1.58;;;;;;;15.21;39.32;96834.13;5034006;28;20025;-30
2023/04/10 08:41:08;;;;;;;2.50;1.58;;;;;;;15.30;39.60;96829.50;5035796;28;20033;-31
2023/04/10 08:43:34;;;;;;;2.47;1.50;;;;;;;15.24;39.72;96836.75;5039455;28;20524;-30
2023/04/10 08:46:00;;;;;;;1.75;1.40;;;;;;;15.27;39.33;96841.31;5048701;28;20029;-31
2023/04/10 08:48:33;;;;;;;2.22;1.52;;;;;;;15.25;39.65;96848.44;5032081;28;20063;-32
2023/04/10 08:51:02;;;;;;;1.80;1.35;;;;;;;15.25;39.43;96843.75;5033755;28;20021;-30
2023/04/10 08:53:30;;;;;;;3.15;1.20;;;;;;;15.51;39.14;96859.97;5039958;28;20377;-30
2023/04/10 08:55:57;;;;;;;3.47;1.60;;;;;;;15.59;38.81;96851.06;5040468;28;20018;-30
2023/04/10 08:58:23;;;;;;;3.75;1.75;;;;;;;15.40;39.22;96850.19;5041054;28;20060;-30
2023/04/10 09:00:50;;;;;;;4.85;1.60;;;;;;;15.65;39.25;96862.19;5031625;28;20466;-32
2023/04/10 09:03:16;;;;;;;4.45;1.55;;;;;;;15.51;39.07;96859.97;5033883;28;20120;-30
2023/04/10 09:05:42;;;;;;;10.73;1.65;;;;;;;15.46;39.11;96853.09;5041045;28;20405;-30
2023/04/10 09:08:09;;;;;;;3.78;1.50;;;;;;;15.51;39.35;96849.03;5033881;28;20032;-31
2023/04/10 09:10:35;;;;;;;2.67;1.70;;;;;;;15.51;39.21;96849.03;5041859;28;20029;-30
2023/04/10 09:13:00;;;;;;;2.30;1.67;;;;;;;15.54;39.53;96850.88;5039528;28;20021;-32
2023/04/10 09:15:27;;;;;;;2.67;1.77;;;;;;;15.56;39.38;96856.69;5040686;28;20025;-30
2023/04/10 09:18:00;;;;;;;4.05;1.60;;;;;;;15.67;39.33;96851.56;5033549;28;20025;-30
2023/04/10 09:20:28;;;;;;;6.22;2.13;;;;;;;15.67;39.18;96841.41;5033730;28;20021;-30
2023/04/10 09:22:54;;;;;;;2.35;1.38;;;;;;;15.53;39.44;96847.38;5032752;28;20021;-30
2023/04/10 09:25:28;;;;;;;2.72;1.77;;;;;;;15.80;38.74;96853.00;5033606;28;20545;-30
2023/04/10 09:28:20;;;;;;;1.95;1.60;;;;;;;15.72;38.46;96854.47;5033989;28;20116;-30
2023/04/10 09:30:46;;;;;;;2.15;1.45;;;;;;;15.84;38.69;96852.84;5040443;28;20064;-30
2023/04/10 09:33:20;;;;;;;2.35;1.48;;;;;;;15.59;38.91;96853.03;5033992;28;20068;-30
2023/04/10 09:35:46;;;;;;;2.22;1.52;;;;;;;15.73;38.71;96858.72;5033178;28;20025;-30
2023/04/10 09:38:15;;;;;;;4.35;1.85;;;;;;;15.72;38.85;96845.50;5034361;28;20432;-30
2023/04/10 09:40:41;;;;;;;2.92;1.70;;;;;;;15.55;38.54;96858.66;5037392;28;20025;-30
2023/04/10 09:43:21;;;;;;;3.28;1.70;;;;;;;15.69;38.27;96860.09;5038926;28;20110;-30
2023/04/10 09:45:51;;;;;;;2.80;1.80;;;;;;;15.49;38.83;96846.75;5048122;28;20110;-32
2023/04/10 09:48:17;;;;;;;3.33;1.80;;;;;;;15.76;38.53;96854.34;5044884;28;20107;-31
2023/04/10 09:50:42;;;;;;;4.47;1.70;;;;;;;15.73;38.90;96856.00;5037541;28;20112;-30
2023/04/10 09:53:13;;;;;;;1.67;1.58;;;;;;;15.98;38.54;96846.81;5037411;28;20021;-30
2023/04/10 09:55:40;;;;;;;2.22;1.83;;;;;;;15.65;38.65;96840.31;5037493;28;20062;-32
2023/04/10 09:58:06;;;;;;;3.25;2.10;;;;;;;15.77;38.83;96858.59;5035780;28;20105;-29
2023/04/10 10:00:41;;;;;;;3.33;1.95;;;;;;;15.86;38.58;96860.59;5050931;28;20025;-30
2023/04/10 10:03:12;;;;;;;2.20;1.90;;;;;;;15.69;38.77;96862.84;5042599;28;20175;-30
2023/04/10 10:05:58;;;;;;;2.65;1.85;;;;;;;15.79;38.82;96853.44;5029226;28;20083;-32
2023/04/10 10:08:25;;;;;;;2.28;1.73;;;;;;;15.65;38.60;96851.25;5035597;28;20033;-30
2023/04/10 10:10:55;;;;;;;2.47;1.90;;;;;;;15.75;38.16;96852.81;5043553;28;20017;-30
2023/04/10 10:13:31;;;;;;;2.97;2.20;;;;;;;15.72;38.37;96859.94;5044035;28;20039;-31
2023/04/10 10:16:13;;;;;;;2.85;2.10;;;;;;;15.70;37.86;96856.16;5032792;28;20044;-31
2023/04/10 10:19:16;;;;;;;4.27;2.83;;;;;;;15.76;38.18;96848.88;5038079;28;20029;-31
2023/04/10 10:21:44;;;;;;;3.73;2.77;;;;;;;15.66;38.33;96852.78;5037200;28;20031;-30
2023/04/10 10:24:12;;;;;;;2.78;2.30;;;;;;;15.76;38.20;96862.53;5036583;28;20029;-33
2023/04/10 10:26:38;;;;;;;2.83;2.17;;;;;;;15.60;38.20;96847.13;5036330;28;20033;-30
2023/04/10 10:29:07;;;;;;;3.13;2.35;;;;;;;15.64;38.19;96836.81;5032047;28;20457;-30
2023/04/10 10:31:35;;;;;;;3.15;2.60;;;;;;;15.82;38.02;96854.53;5040310;28;20374;-30
2023/04/10 10:34:04;;;;;;;2.90;2.25;;;;;;;15.75;37.97;96836.41;5044181;28;20028;-30
2023/04/10 10:36:30;;;;;;;4.03;2.47;;;;;;;15.88;37.83;96844.50;5036545;28;20063;-30
2023/04/10 10:39:40;;;;;;;5.10;2.90;;;;;;;15.67;38.12;96851.56;5036605;28;20072;-30
2023/04/10 10:42:08;;;;;;;4.80;2.65;;;;;;;15.92;37.69;96845.13;5036426;28;20022;-30
2023/04/10 10:44:51;;;;;;;5.35;3.38;;;;;;;15.87;36.78;96842.97;5036622;28;20461;-31
2023/04/10 10:47:19;;;;;;;5.57;3.80;;;;;;;15.68;37.08;96836.69;5043912;28;20579;-30
2023/04/10 10:49:59;;;;;;;5.40;4.05;;;;;;;15.91;37.52;96836.16;5042015;28;20025;-31
2023/04/10 10:52:51;;;;;;;5.05;3.78;;;;;;;16.02;37.13;96843.94;5042901;28;20017;-30
2023/04/10 10:55:38;;;;;;;6.20;4.07;;;;;;;15.91;37.80;96841.63;5036183;28;20013;-29
2023/04/10 10:58:05;;;;;;;5.95;3.63;;;;;;;15.94;37.83;96845.44;5033649;28;20036;-30
2023/04/10 11:00:50;;;;;;;6.10;4.43;;;;;;;16.12;37.42;96850.97;5051438;28;20420;-31
2023/04/10 11:03:16;;;;;;;14.82;9.23;;;;;;;15.93;37.82;96855.63;5036165;28;20129;-30
2023/04/10 11:05:51;;;;;;;20.17;12.38;;;;;;;16.01;37.39;96854.13;5050516;28;20096;-29
2023/04/10 11:08:17;;;;;;;20.38;12.32;;;;;;;16.05;37.59;96843.81;5035595;28;20033;-30
2023/04/10 11:11:02;;;;;;;25.58;14.40;;;;;;;16.06;37.70;96839.88;5042691;28;20055;-30
2023/04/10 11:13:27;;;;;;;17.77;10.43;;;;;;;16.02;37.78;96849.41;5035915;28;20026;-29
2023/04/10 11:15:57;;;;;;;27.30;15.70;;;;;;;16.01;37.62;96834.97;5035885;28;20021;-32
2023/04/10 11:18:47;;;;;;;38.53;20.27;;;;;;;16.04;37.47;96839.56;5042594;28;20020;-29
2023/04/10 11:21:15;;;;;;;16.98;10.30;;;;;;;16.06;37.37;96848.06;5035669;28;20063;-30
2023/04/10 11:23:49;;;;;;;15.70;8.65;;;;;;;16.02;37.40;96849.41;5037407;28;20085;-30
2023/04/10 11:26:45;;;;;;;11.15;6.90;;;;;;;15.99;37.14;96853.03;5035806;28;20032;-30
2023/04/10 11:29:16;;;;;;;8.70;5.75;;;;;;;15.96;37.20;96846.50;5029381;28;20366;-30
2023/04/10 11:31:54;;;;;;;7.70;5.35;;;;;;;16.00;37.45;96838.16;5035324;28;20026;-32
2023/04/10 11:34:19;;;;;;;6.63;4.47;;;;;;;16.11;37.39;96836.50;5033715;28;20074;-32
2023/04/10 11:36:46;;;;;;;5.50;3.85;;;;;;;16.05;37.42;96832.88;5037967;28;20452;-31
2023/04/10 11:39:17;;;;;;;5.88;4.20;;;;;;;16.11;37.87;96836.50;5042661;28;20033;-29